createdAt,value
2022-09-28T00:02:01.561Z,78.85
2022-09-28T00:04:31.233Z,78.89
2022-09-28T00:06:58.996Z,78.60
2022-09-28T00:09:29.910Z,78.70
2022-09-28T00:12:00.169Z,78.50
2022-09-28T00:14:30.254Z,78.27
2022-09-28T00:16:57.785Z,77.63
2022-09-28T00:19:27.795Z,77.79
2022-09-28T00:21:55.364Z,77.85
2022-09-28T00:24:27.760Z,77.43
2022-09-28T00:27:02.701Z,77.20
2022-09-28T00:29:33.421Z,77.55
2022-09-28T00:32:03.396Z,76.69
2022-09-28T00:34:39.834Z,76.71
2022-09-28T00:37:08.864Z,76.39
2022-09-28T00:39:38.178Z,76.50
2022-09-28T00:42:15.102Z,75.91
2022-09-28T00:44:49.877Z,75.93
2022-09-28T00:47:43.655Z,75.83
2022-09-28T00:50:25.062Z,75.16
2022-09-28T00:52:56.762Z,75.56
2022-09-28T00:55:33.174Z,75.16
2022-09-28T00:58:11.317Z,75.23
2022-09-28T01:00:40.607Z,74.71
2022-09-28T01:03:11.900Z,75.40
2022-09-28T01:05:44.480Z,75.12
2022-09-28T01:08:16.715Z,75.29
2022-09-28T01:10:51.259Z,75.70
2022-09-28T01:13:24.060Z,75.56
2022-09-28T01:16:00.524Z,75.57
2022-09-28T01:18:40.243Z,75.34
2022-09-28T01:21:16.448Z,75.27
2022-09-28T01:24:04.012Z,75.50
2022-09-28T01:26:59.636Z,75.71
2022-09-28T01:29:40.200Z,75.82
2022-09-28T01:32:16.803Z,75.16
2022-09-28T01:34:53.646Z,75.26
2022-09-28T01:37:25.693Z,75.45
2022-09-28T01:39:56.950Z,75.05
2022-09-28T01:42:30.947Z,74.48
2022-09-28T01:45:07.123Z,74.40
2022-09-28T01:47:41.256Z,74.31
2022-09-28T01:50:13.863Z,74.44
2022-09-28T01:52:47.502Z,74.14
2022-09-28T01:55:24.720Z,74.11
2022-09-28T01:58:03.561Z,73.72
2022-09-28T02:00:31.644Z,73.34
2022-09-28T02:03:10.870Z,73.53
2022-09-28T02:05:42.929Z,73.22
2022-09-28T02:08:20.093Z,72.88
2022-09-28T02:10:53.484Z,73.24
2022-09-28T02:13:33.052Z,73.04
2022-09-28T02:16:05.604Z,72.88
2022-09-28T02:18:34.856Z,72.74
2022-09-28T02:21:10.887Z,72.69
2022-09-28T02:23:49.679Z,72.75
2022-09-28T02:26:23.958Z,72.11
2022-09-28T02:28:54.861Z,72.32
2022-09-28T02:31:24.193Z,72.04
2022-09-28T02:34:00.091Z,72.22
2022-09-28T02:36:30.228Z,71.91
2022-09-28T02:39:01.222Z,72.05
2022-09-28T02:41:42.440Z,71.94
2022-09-28T02:44:28.203Z,71.63
2022-09-28T02:47:05.515Z,71.22
2022-09-28T02:49:41.930Z,71.02
2022-09-28T02:52:26.509Z,70.70
2022-09-28T02:55:26.999Z,70.57
2022-09-28T02:58:20.083Z,70.55
2022-09-28T03:00:59.061Z,70.20
2022-09-28T03:03:40.645Z,70.50
2022-09-28T03:06:19.230Z,70.09
2022-09-28T03:08:53.091Z,69.68
2022-09-28T03:11:27.790Z,69.75
2022-09-28T03:13:56.347Z,69.75
2022-09-28T03:16:27.426Z,69.43
2022-09-28T03:18:55.169Z,69.65
2022-09-28T03:21:25.935Z,70.04
2022-09-28T03:23:55.962Z,70.13
2022-09-28T03:26:23.555Z,70.11
2022-09-28T03:28:54.137Z,70.00
2022-09-28T03:31:23.927Z,69.53
2022-09-28T03:33:54.679Z,69.65
2022-09-28T03:36:22.766Z,69.70
2022-09-28T03:38:53.216Z,70.31
2022-09-28T03:41:21.209Z,70.43
2022-09-28T03:43:48.891Z,71.14
2022-09-28T03:46:16.569Z,70.96
2022-09-28T03:48:46.880Z,70.67
2022-09-28T03:51:15.796Z,70.64
2022-09-28T03:53:43.411Z,70.68
2022-09-28T03:56:13.186Z,70.87
2022-09-28T03:58:40.813Z,70.76
2022-09-28T04:01:16.395Z,71.23
2022-09-28T04:03:45.668Z,71.07
2022-09-28T04:06:13.588Z,71.03
2022-09-28T04:08:43.052Z,70.99
2022-09-28T04:11:10.598Z,70.86
2022-09-28T04:13:38.431Z,70.58
2022-09-28T04:16:06.576Z,70.21
2022-09-28T04:18:35.142Z,69.63
2022-09-28T04:21:06.724Z,69.76
2022-09-28T04:23:35.553Z,69.40
2022-09-28T04:26:05.007Z,69.48
2022-09-28T04:28:52.615Z,69.98
2022-09-28T04:31:23.155Z,70.34
2022-09-28T04:33:50.825Z,70.17
2022-09-28T04:36:19.687Z,70.21
2022-09-28T04:38:54.507Z,70.19
2022-09-28T04:41:23.863Z,70.71
2022-09-28T04:43:51.578Z,70.72
2022-09-28T04:46:19.840Z,71.28
2022-09-28T04:48:47.426Z,72.04
2022-09-28T04:51:15.255Z,71.99
2022-09-28T04:53:42.799Z,72.27
2022-09-28T04:56:12.451Z,72.12
2022-09-28T04:58:42.020Z,71.95
2022-09-28T05:01:13.244Z,71.88
2022-09-28T05:03:41.003Z,72.11
2022-09-28T05:06:09.371Z,72.00
2022-09-28T05:08:37.189Z,71.88
2022-09-28T05:11:06.807Z,72.26
2022-09-28T05:13:41.664Z,72.24
2022-09-28T05:16:12.035Z,72.70
2022-09-28T05:18:39.637Z,73.09
2022-09-28T05:21:11.075Z,73.15
2022-09-28T05:23:38.662Z,73.96
2022-09-28T05:26:06.515Z,74.00
2022-09-28T05:28:34.750Z,74.24
2022-09-28T05:31:02.716Z,74.30
2022-09-28T05:33:32.510Z,74.58
2022-09-28T05:36:01.532Z,74.58
2022-09-28T05:38:29.797Z,74.23
2022-09-28T05:40:57.667Z,74.62
2022-09-28T05:43:25.306Z,74.97
2022-09-28T05:45:55.672Z,74.67
2022-09-28T05:48:23.681Z,74.05
2022-09-28T05:50:53.323Z,73.73
2022-09-28T05:53:21.540Z,73.78
2022-09-28T05:55:49.386Z,73.36
2022-09-28T05:58:17.530Z,73.47
2022-09-28T06:00:45.510Z,73.64
2022-09-28T06:03:14.489Z,74.39
2022-09-28T06:05:42.216Z,75.38
2022-09-28T06:08:11.605Z,76.13
2022-09-28T06:10:39.785Z,76.67
2022-09-28T06:13:08.460Z,76.97
2022-09-28T06:15:37.228Z,77.35
2022-09-28T06:18:07.505Z,77.32
2022-09-28T06:20:37.154Z,77.55
2022-09-28T06:23:05.275Z,78.06
2022-09-28T06:25:34.381Z,77.82
2022-09-28T06:28:04.257Z,77.46
2022-09-28T06:30:38.430Z,77.63
2022-09-28T06:33:08.249Z,77.78
2022-09-28T06:35:36.478Z,77.46
2022-09-28T06:38:04.490Z,78.02
2022-09-28T06:40:34.870Z,77.75
2022-09-28T06:43:06.611Z,77.21
2022-09-28T06:45:34.225Z,77.08
2022-09-28T06:48:02.889Z,76.87
2022-09-28T06:50:33.171Z,76.82
2022-09-28T06:53:01.867Z,77.29
2022-09-28T06:55:31.148Z,77.45
2022-09-28T06:58:01.282Z,77.63
2022-09-28T07:00:31.076Z,77.66
2022-09-28T07:02:58.956Z,77.55
2022-09-28T07:05:28.747Z,77.61
2022-09-28T07:07:57.277Z,77.32
2022-09-28T07:10:28.293Z,77.23
2022-09-28T07:12:56.845Z,77.24
2022-09-28T07:15:26.082Z,77.40
2022-09-28T07:18:02.693Z,77.06
2022-09-28T07:20:37.819Z,77.49
2022-09-28T07:23:18.972Z,77.11
2022-09-28T07:25:48.816Z,77.71
2022-09-28T07:28:17.201Z,77.89
2022-09-28T07:30:46.211Z,78.06
2022-09-28T07:33:15.833Z,78.16
2022-09-28T07:35:50.765Z,78.68
2022-09-28T07:38:18.508Z,78.46
2022-09-28T07:41:17.446Z,78.45
2022-09-28T07:43:47.416Z,78.96
2022-09-28T07:46:18.574Z,79.03
2022-09-28T07:48:48.195Z,79.30
2022-09-28T07:51:17.733Z,79.37
2022-09-28T07:53:57.035Z,79.52
2022-09-28T07:56:27.158Z,79.36
2022-09-28T07:58:54.795Z,79.96
2022-09-28T08:01:37.781Z,80.21
2022-09-28T08:04:06.225Z,80.29
2022-09-28T08:06:38.880Z,80.44
2022-09-28T08:09:08.942Z,80.26
2022-09-28T08:11:45.318Z,80.29
2022-09-28T08:14:16.130Z,80.00
2022-09-28T08:16:47.631Z,79.23
2022-09-28T08:19:17.452Z,79.70
2022-09-28T08:21:49.356Z,80.03
2022-09-28T08:24:20.926Z,79.49
2022-09-28T08:26:51.849Z,79.98
2022-09-28T08:29:19.457Z,79.75
2022-09-28T08:31:49.918Z,79.87
2022-09-28T08:34:18.897Z,80.46
2022-09-28T08:36:46.560Z,80.82
2022-09-28T08:39:24.286Z,80.96
2022-09-28T08:42:03.854Z,81.31
2022-09-28T08:47:31.891Z,81.43
2022-09-28T08:50:04.458Z,81.32
2022-09-28T08:52:41.816Z,80.99
2022-09-28T08:55:15.747Z,81.29
2022-09-28T08:57:53.950Z,81.74
2022-09-28T09:00:28.311Z,81.93
2022-09-28T09:03:00.137Z,82.02
2022-09-28T09:05:46.336Z,81.80
2022-09-28T09:08:28.474Z,82.70
2022-09-28T09:11:03.328Z,82.59
2022-09-28T09:14:06.281Z,82.86
2022-09-28T09:16:46.107Z,82.24
2022-09-28T09:19:22.707Z,82.19
2022-09-28T09:22:02.137Z,80.69
2022-09-28T09:24:40.599Z,79.81
2022-09-28T09:27:15.642Z,79.46
2022-09-28T09:30:00.841Z,79.42
2022-09-28T09:32:52.387Z,79.34
2022-09-28T09:35:49.637Z,78.54
2022-09-28T09:38:47.097Z,78.87
2022-09-28T09:41:31.963Z,78.63
2022-09-28T09:44:40.716Z,78.35
2022-09-28T09:47:19.219Z,77.79
2022-09-28T09:49:56.329Z,77.64
2022-09-28T09:52:39.818Z,77.48
2022-09-28T09:55:17.087Z,77.06
2022-09-28T09:57:51.006Z,76.99
2022-09-28T10:00:21.923Z,77.08
2022-09-28T10:02:50.856Z,77.89
2022-09-28T10:05:23.302Z,77.76
2022-09-28T10:08:04.221Z,77.15
2022-09-28T10:10:53.068Z,77.51
2022-09-28T10:13:23.117Z,77.93
2022-09-28T10:15:51.565Z,77.92
2022-09-28T10:18:21.257Z,77.50
2022-09-28T10:20:51.919Z,77.28
2022-09-28T10:23:27.713Z,78.05
2022-09-28T10:26:03.666Z,77.89
2022-09-28T10:28:37.155Z,78.69
2022-09-28T10:31:47.570Z,78.83
2022-09-28T10:34:19.063Z,79.92
2022-09-28T10:36:58.076Z,79.99
2022-09-28T10:39:31.115Z,79.87
2022-09-28T10:42:02.589Z,79.64
2022-09-28T10:44:39.156Z,80.12
2022-09-28T10:47:18.028Z,79.82
2022-09-28T10:49:52.278Z,79.46
2022-09-28T10:52:37.851Z,79.96
2022-09-28T10:56:12.946Z,80.11
2022-09-28T10:58:45.853Z,80.40
2022-09-28T11:01:21.405Z,80.20
2022-09-28T11:03:53.259Z,80.55
2022-09-28T11:06:29.991Z,81.01
2022-09-28T11:08:59.650Z,80.64
2022-09-28T11:11:29.547Z,80.28
2022-09-28T11:14:01.023Z,80.05
2022-09-28T11:16:31.244Z,80.06
2022-09-28T11:19:04.178Z,78.92
2022-09-28T11:21:41.591Z,80.35
2022-09-28T11:24:21.055Z,80.56
2022-09-28T11:26:52.598Z,79.56
2022-09-28T11:29:27.565Z,78.76
2022-09-28T11:32:01.238Z,79.62
2022-09-28T11:34:57.464Z,79.15
2022-09-28T11:37:38.766Z,79.82
2022-09-28T11:40:27.190Z,80.14
2022-09-28T11:43:08.178Z,80.04
2022-09-28T11:45:51.713Z,80.14
2022-09-28T11:48:25.377Z,80.20
2022-09-28T11:50:57.378Z,79.45
2022-09-28T11:53:31.514Z,78.79
2022-09-28T11:56:08.859Z,79.59
2022-09-28T11:58:43.519Z,78.98
2022-09-28T12:01:23.011Z,78.30
2022-09-28T12:03:54.989Z,79.24
2022-09-28T12:06:28.825Z,79.37
2022-09-28T12:09:00.817Z,79.51
2022-09-28T12:11:35.886Z,78.74
2022-09-28T12:14:11.378Z,79.36
2022-09-28T12:17:04.890Z,79.53
2022-09-28T12:19:38.181Z,79.12
2022-09-28T12:22:14.728Z,78.88
2022-09-28T12:24:47.474Z,78.85
2022-09-28T12:27:21.884Z,78.48
2022-09-28T12:29:56.493Z,78.50
2022-09-28T12:32:31.720Z,78.45
2022-09-28T12:34:59.496Z,77.80
2022-09-28T12:37:41.167Z,78.12
2022-09-28T12:40:29.137Z,77.30
2022-09-28T12:43:11.770Z,77.23
2022-09-28T12:46:14.185Z,77.15
2022-09-28T12:51:59.946Z,77.36
2022-09-28T12:54:58.226Z,77.43
2022-09-28T12:57:43.505Z,78.12
2022-09-28T13:00:14.401Z,78.04
2022-09-28T13:02:57.583Z,78.14
2022-09-28T13:06:14.052Z,77.97
2022-09-28T13:08:55.310Z,78.25
2022-09-28T13:11:33.509Z,77.66
2022-09-28T13:14:32.883Z,77.84
2022-09-28T13:17:09.517Z,77.30
2022-09-28T13:19:45.993Z,74.49
2022-09-28T13:22:28.810Z,74.29
2022-09-28T13:24:59.777Z,75.24
2022-09-28T13:27:34.420Z,75.50
2022-09-28T13:30:06.246Z,75.42
2022-09-28T13:32:35.614Z,75.27
2022-09-28T13:35:05.519Z,74.91
2022-09-28T13:37:34.348Z,75.10
2022-09-28T13:40:06.142Z,75.25
2022-09-28T13:43:01.266Z,73.68
2022-09-28T13:45:58.850Z,73.61
2022-09-28T13:48:42.463Z,71.98
2022-09-28T13:51:38.762Z,72.02
2022-09-28T13:54:44.470Z,72.44
2022-09-28T13:57:20.689Z,72.41
2022-09-28T13:59:59.159Z,72.19
2022-09-28T14:02:34.728Z,71.39
2022-09-28T14:05:41.917Z,72.33
2022-09-28T14:08:28.932Z,72.65
2022-09-28T14:10:58.173Z,72.92
2022-09-28T14:14:00.915Z,72.90
2022-09-28T14:16:32.767Z,72.19
2022-09-28T14:19:15.396Z,73.04
2022-09-28T14:22:24.160Z,73.12
2022-09-28T14:25:14.260Z,73.61
2022-09-28T14:28:03.523Z,73.35
2022-09-28T14:30:59.585Z,73.16
2022-09-28T14:33:29.792Z,72.59
2022-09-28T14:36:02.105Z,72.30
2022-09-28T14:38:50.917Z,72.06
2022-09-28T14:41:34.199Z,71.99
2022-09-28T14:44:08.585Z,72.54
2022-09-28T14:46:45.506Z,72.71
2022-09-28T14:49:52.474Z,72.61
2022-09-28T14:52:39.133Z,71.90
2022-09-28T14:55:18.349Z,72.87
2022-09-28T14:57:55.754Z,73.08
2022-09-28T15:00:32.379Z,73.36
2022-09-28T15:03:12.014Z,74.20
2022-09-28T15:05:47.992Z,74.50
2022-09-28T15:08:20.970Z,73.97
2022-09-28T15:10:52.535Z,73.82
2022-09-28T15:13:30.025Z,74.81
2022-09-28T15:16:11.550Z,74.75
2022-09-28T15:19:15.688Z,74.40
2022-09-28T15:21:53.236Z,74.79
2022-09-28T15:24:34.165Z,73.88
2022-09-28T15:27:03.585Z,74.79
2022-09-28T15:29:33.261Z,74.40
2022-09-28T15:32:00.869Z,73.49
2022-09-28T15:34:48.776Z,73.54
2022-09-28T15:37:25.208Z,73.67
2022-09-28T15:39:57.143Z,73.63
2022-09-28T15:42:24.914Z,73.26
2022-09-28T15:45:26.470Z,73.73
2022-09-28T15:47:58.460Z,73.46
2022-09-28T15:50:31.682Z,73.88
2022-09-28T15:53:07.828Z,73.87
2022-09-28T15:55:44.382Z,73.79
2022-09-28T15:58:20.549Z,74.03
2022-09-28T16:00:54.487Z,74.74
2022-09-28T16:03:32.187Z,75.07
2022-09-28T16:06:08.417Z,75.20
2022-09-28T16:08:40.676Z,75.89
2022-09-28T16:11:13.611Z,76.03
2022-09-28T16:13:56.004Z,76.31
2022-09-28T16:16:29.901Z,76.56
2022-09-28T16:19:00.651Z,77.24
2022-09-28T16:21:46.623Z,76.80
2022-09-28T16:24:25.783Z,77.31
2022-09-28T16:26:59.300Z,77.50
2022-09-28T16:29:33.541Z,77.61
2022-09-28T16:32:38.432Z,77.25
2022-09-28T16:35:19.600Z,77.88
2022-09-28T16:37:49.182Z,78.73
2022-09-28T16:40:17.106Z,78.56
2022-09-28T16:42:49.120Z,78.75
2022-09-28T16:45:20.820Z,78.43
2022-09-28T16:47:52.774Z,78.38
2022-09-28T16:50:21.393Z,77.96
2022-09-28T16:53:08.404Z,78.27
2022-09-28T16:55:40.685Z,77.59
2022-09-28T16:58:09.326Z,76.95
2022-09-28T17:00:36.976Z,77.13
2022-09-28T17:03:14.088Z,77.50
2022-09-28T17:05:41.922Z,77.29
2022-09-28T17:08:14.694Z,77.03
2022-09-28T17:11:12.633Z,77.55
2022-09-28T17:13:35.136Z,77.14
2022-09-28T17:16:06.178Z,76.37
2022-09-28T17:18:37.818Z,76.66
2022-09-28T17:21:07.451Z,76.66
2022-09-28T17:23:35.033Z,76.31
2022-09-28T17:26:03.260Z,76.81
2022-09-28T17:28:33.072Z,76.85
2022-09-28T17:31:01.283Z,77.53
2022-09-28T17:33:29.263Z,77.40
2022-09-28T17:36:01.463Z,77.67
2022-09-28T17:38:29.390Z,77.21
2022-09-28T17:40:57.021Z,76.44
2022-09-28T17:43:24.718Z,76.51
2022-09-28T17:45:52.670Z,76.46
2022-09-28T17:48:22.883Z,76.26
2022-09-28T17:50:53.575Z,75.92
2022-09-28T17:53:22.861Z,75.51
2022-09-28T17:55:50.482Z,76.10
2022-09-28T17:58:19.970Z,75.62
2022-09-28T18:00:49.574Z,76.01
2022-09-28T18:03:19.834Z,75.93
2022-09-28T18:05:49.720Z,75.62
2022-09-28T18:08:21.268Z,75.74
2022-09-28T18:10:51.161Z,75.43
2022-09-28T18:13:18.738Z,75.61
2022-09-28T18:15:46.352Z,76.11
2022-09-28T18:18:14.036Z,76.65
2022-09-28T18:20:42.041Z,77.34
2022-09-28T18:23:09.592Z,77.91
2022-09-28T18:25:40.692Z,77.55
2022-09-28T18:28:09.950Z,77.73
2022-09-28T18:30:40.816Z,77.94
2022-09-28T18:33:11.483Z,77.96
2022-09-28T18:35:39.334Z,77.88
2022-09-28T18:38:08.030Z,78.21
2022-09-28T18:40:36.939Z,77.70
2022-09-28T18:43:04.683Z,77.06
2022-09-28T18:45:35.783Z,76.93
2022-09-28T18:48:03.378Z,76.47
2022-09-28T18:50:30.988Z,76.06
2022-09-28T18:53:11.784Z,75.49
2022-09-28T18:55:40.451Z,74.93
2022-09-28T18:58:08.971Z,74.69
2022-09-28T19:00:40.124Z,74.74
2022-09-28T19:03:10.868Z,75.02
2022-09-28T19:05:42.568Z,74.92
2022-09-28T19:08:10.541Z,75.33
2022-09-28T19:10:38.243Z,75.41
2022-09-28T19:13:06.214Z,75.29
2022-09-28T19:15:34.641Z,74.88
2022-09-28T19:18:03.914Z,74.98
2022-09-28T19:20:33.564Z,75.25
2022-09-28T19:23:01.260Z,75.56
2022-09-28T19:25:29.097Z,75.99
2022-09-28T19:27:56.687Z,75.83
2022-09-28T19:30:24.302Z,76.13
2022-09-28T19:32:51.908Z,76.79
2022-09-28T19:35:20.831Z,76.80
2022-09-28T19:37:49.828Z,77.30
2022-09-28T19:40:17.699Z,77.91
2022-09-28T19:42:45.379Z,77.85
2022-09-28T19:45:13.069Z,78.46
2022-09-28T19:47:40.701Z,79.04
2022-09-28T19:50:10.252Z,79.29
2022-09-28T19:52:39.276Z,79.78
2022-09-28T19:55:07.907Z,79.72
2022-09-28T19:57:35.614Z,79.29
2022-09-28T20:00:04.081Z,79.48
2022-09-28T20:02:31.782Z,78.86
2022-09-28T20:04:59.344Z,79.05
2022-09-28T20:07:26.991Z,79.50
2022-09-28T20:09:55.905Z,79.91
2022-09-28T20:12:23.439Z,80.24
2022-09-28T20:14:51.052Z,80.36
2022-09-28T20:17:19.185Z,80.12
2022-09-28T20:19:46.960Z,80.21
2022-09-28T20:22:15.655Z,80.10
2022-09-28T20:24:43.194Z,79.81
2022-09-28T20:27:12.327Z,79.70
2022-09-28T20:29:39.933Z,79.59
2022-09-28T20:32:07.504Z,79.40
2022-09-28T20:34:35.261Z,78.75
2022-09-28T20:37:02.900Z,78.35
2022-09-28T20:39:30.588Z,78.41
2022-09-28T20:41:58.200Z,78.47
2022-09-28T20:44:27.335Z,76.56
2022-09-28T20:46:56.595Z,76.26
2022-09-28T20:49:24.288Z,76.73
2022-09-28T20:51:51.854Z,75.33
2022-09-28T20:54:19.553Z,75.53
2022-09-28T20:56:48.254Z,75.46
2022-09-28T20:59:15.984Z,74.81
2022-09-28T21:01:45.104Z,74.90
2022-09-28T21:04:13.091Z,75.22
2022-09-28T21:06:42.030Z,74.91
2022-09-28T21:09:11.344Z,74.64
2022-09-28T21:11:42.831Z,75.19
2022-09-28T21:14:10.808Z,75.02
2022-09-28T21:16:39.281Z,75.33
2022-09-28T21:19:08.337Z,75.93
2022-09-28T21:21:36.032Z,76.51
2022-09-28T21:24:03.863Z,76.96
2022-09-28T21:26:32.329Z,77.26
2022-09-28T21:29:01.205Z,77.64
2022-09-28T21:31:32.496Z,78.28
2022-09-28T21:34:00.649Z,78.52
2022-09-28T21:36:29.626Z,78.81
2022-09-28T21:38:57.411Z,78.99
2022-09-28T21:41:25.481Z,78.69
2022-09-28T21:43:53.109Z,78.33
2022-09-28T21:46:20.692Z,78.87
2022-09-28T21:48:52.281Z,79.05
2022-09-28T21:51:20.492Z,79.28
2022-09-28T21:53:50.156Z,79.33
2022-09-28T21:56:18.512Z,79.46
2022-09-28T21:58:46.119Z,79.14
2022-09-28T22:01:16.654Z,78.93
2022-09-28T22:03:46.651Z,78.89
2022-09-28T22:06:14.799Z,79.38
2022-09-28T22:08:42.650Z,79.82
2022-09-28T22:11:13.827Z,79.54
2022-09-28T22:13:43.287Z,79.05
2022-09-28T22:16:11.856Z,78.87
2022-09-28T22:18:40.071Z,78.91
2022-09-28T22:21:10.226Z,78.86
2022-09-28T22:23:39.139Z,79.16
2022-09-28T22:26:09.688Z,79.19
2022-09-28T22:28:40.757Z,79.12
2022-09-28T22:31:08.369Z,79.28
2022-09-28T22:33:35.993Z,79.35
2022-09-28T22:36:03.615Z,79.29
2022-09-28T22:38:32.864Z,79.39
2022-09-28T22:41:00.692Z,79.18
2022-09-28T22:43:28.420Z,78.72
2022-09-28T22:46:04.948Z,79.50
2022-09-28T22:48:33.606Z,78.71
2022-09-28T22:51:01.603Z,77.98
2022-09-28T22:53:29.713Z,78.16
2022-09-28T22:56:05.549Z,78.33
2022-09-28T22:58:33.789Z,78.13
2022-09-28T23:03:40.276Z,78.43
2022-09-28T23:06:09.208Z,78.44
2022-09-28T23:08:37.379Z,78.63
2022-09-28T23:13:50.002Z,77.17
2022-09-28T23:16:18.177Z,77.67
2022-09-28T23:18:49.114Z,77.29
2022-09-28T23:21:19.227Z,77.50
2022-09-28T23:23:52.088Z,77.25
2022-09-28T23:26:21.612Z,77.48
2022-09-28T23:28:49.521Z,77.49
2022-09-28T23:31:19.308Z,77.98
2022-09-28T23:33:48.608Z,78.31
2022-09-28T23:36:16.579Z,78.53
2022-09-28T23:38:44.832Z,78.65
2022-09-28T23:41:12.643Z,79.07
2022-09-28T23:43:40.235Z,79.26
2022-09-28T23:46:08.216Z,79.30
2022-09-28T23:48:36.065Z,78.84
2022-09-28T23:51:05.077Z,79.00
2022-09-28T23:53:33.167Z,79.18
2022-09-28T23:56:01.360Z,79.13
2022-09-28T23:58:29.086Z,78.90
